Terminal Aerodrome Forecast
Issued by NWS

Home | Current Version | Previous Version | Text Only | Print | Product List | Glossary On
Versions: 1 2 3 4 5 6 7 8 9 10 11 12
000
FTUS45 KABQ 131740
TAFTCC
TAF
KTCC 131740Z 1318/1418 05014G24KT P6SM FEW250
     FM132200 06009KT P6SM SCT250
     FM140300 VRB04KT P6SM SCT200
     FM141000 06009KT P6SM BKN200=

USA.gov is the U.S. government's official web portal to all federal, state and local government web resources and services.